createdAt,value
2022-12-25T00:29:02.942Z,10
2022-12-25T00:58:22.281Z,11
2022-12-25T01:27:27.628Z,10
2022-12-25T01:56:36.935Z,10
2022-12-25T02:25:49.156Z,10
2022-12-25T02:55:02.413Z,8
2022-12-25T03:24:18.705Z,9
2022-12-25T03:53:34.355Z,7
2022-12-25T04:22:54.456Z,7
2022-12-25T04:52:10.868Z,8
2022-12-25T05:21:27.452Z,11
2022-12-25T05:50:48.601Z,7
2022-12-25T06:20:03.822Z,9
2022-12-25T06:49:26.185Z,10
2022-12-25T07:18:46.126Z,9
2022-12-25T07:48:16.769Z,9
2022-12-25T08:16:58.737Z,13
2022-12-25T08:46:11.218Z,10
2022-12-25T09:15:23.999Z,10
2022-12-25T09:44:39.294Z,14
2022-12-25T10:13:53.202Z,9
2022-12-25T10:43:08.335Z,16
2022-12-25T11:12:24.441Z,22
2022-12-25T11:41:45.039Z,20
2022-12-25T12:11:04.069Z,20
2022-12-25T12:39:51.500Z,20
2022-12-25T13:09:19.399Z,18
2022-12-25T13:38:39.711Z,20
2022-12-25T14:07:56.661Z,19
2022-12-25T14:37:19.111Z,17
2022-12-25T15:06:33.785Z,14
2022-12-25T15:35:40.932Z,10
2022-12-25T16:04:54.387Z,7
2022-12-25T16:34:19.166Z,7
2022-12-25T17:03:41.211Z,8
2022-12-25T17:32:55.070Z,8
2022-12-25T18:02:19.831Z,9
2022-12-25T18:31:29.554Z,10
2022-12-25T19:00:45.153Z,10
2022-12-25T19:30:03.758Z,10
2022-12-25T19:59:25.021Z,10
2022-12-25T20:28:44.859Z,13
2022-12-25T20:58:06.595Z,13
2022-12-25T21:27:15.151Z,14
2022-12-25T21:56:27.442Z,13
2022-12-25T22:25:30.360Z,14
2022-12-25T22:54:46.419Z,14
2022-12-25T23:24:05.193Z,14
2022-12-25T23:53:08.767Z,13
